Weather at Woods Road West Airstrip

Public forecast

Using degrees Fahrenheit for public forecast. Weather courtesy of forecast.io.

Closest aviation weather report (METAR) to Woods Road West Airstrip

Closest report is Gila Bend Af Aux Airport, 14.5 nm (26.9 km) S. Retrieved 2021/06/25 03:58 UTC (30 minutes ago):

KGXF 250358Z COR 22010KT 10SM FEW100 35/14 A2977 RMK AO2A SLP067 T03480136 COR 0407

Closest aviation forecast (TAF) to Woods Road West Airstrip

Closest forecast is Luke Air Force Base, 28.6 nm (52.9 km) NNE. Retrieved 2021-06-25 04:13 UTC (15 minutes ago):

TAF KLUF 250400Z 2504/2610 VRB06KT 9999 FEW150 QNH2976INS BECMG 2519/2520 21012G20KT 9999 SKC QNH2968INS WND VRB06KT AFT 2602 TX40/2523Z TN27/2512Z